Terminal Aerodrome Forecast
Issued by NWS

Home | Current Version | Previous Version | Text Only | Print | Product List | Glossary On
Versions: 1 2 3 4 5 6 7 8 9 10 11 12
000
FTUS44 KOUN 240520
TAFGAG
TAF
KGAG 240520Z 2406/2506 15016G24KT P6SM SCT080 BKN250
     FM241400 17016G24KT 6SM -RA OVC050
     FM241800 18018G26KT P6SM OVC050 PROB30 2418/2424 4SM TSRA
      BKN025CB
     FM250000 16014KT P6SM VCSH OVC040=

USA.gov is the U.S. government's official web portal to all federal, state and local government web resources and services.